createdAt,value
2023-04-20T00:00:17.769Z,1.89
2023-04-20T00:02:45.941Z,1.79
2023-04-20T00:05:13.584Z,1.62
2023-04-20T00:07:42.903Z,1.57
2023-04-20T00:10:11.188Z,1.53
2023-04-20T00:12:38.690Z,1.61
2023-04-20T00:15:07.512Z,1.51
2023-04-20T00:17:35.109Z,1.37
2023-04-20T00:20:03.783Z,1.60
2023-04-20T00:22:31.265Z,1.66
2023-04-20T00:25:00.193Z,1.73
2023-04-20T00:27:27.656Z,1.75
2023-04-20T00:29:55.085Z,1.79
2023-04-20T00:32:22.589Z,1.79
2023-04-20T00:34:50.211Z,1.74
2023-04-20T00:37:17.655Z,1.74
2023-04-20T00:39:45.188Z,1.76
2023-04-20T00:42:13.925Z,1.71
2023-04-20T00:44:41.339Z,1.67
2023-04-20T00:47:08.774Z,1.47
2023-04-20T00:49:36.255Z,1.52
2023-04-20T00:52:03.899Z,1.52
2023-04-20T00:54:32.868Z,1.54
2023-04-20T00:57:01.200Z,1.48
2023-04-20T00:59:30.003Z,1.35
2023-04-20T01:01:58.233Z,1.24
2023-04-20T01:04:27.429Z,1.30
2023-04-20T01:06:55.343Z,1.23
2023-04-20T01:09:22.932Z,1.24
2023-04-20T01:11:50.570Z,1.20
2023-04-20T01:14:18.184Z,1.12
2023-04-20T01:16:47.629Z,1.08
2023-04-20T01:19:15.320Z,1.15
2023-04-20T01:21:43.162Z,1.10
2023-04-20T01:24:12.000Z,1.10
2023-04-20T01:26:39.622Z,1.06
2023-04-20T01:29:07.172Z,0.98
2023-04-20T01:31:34.785Z,0.91
2023-04-20T01:34:02.328Z,0.79
2023-04-20T01:36:29.880Z,0.52
2023-04-20T01:38:57.513Z,0.61
2023-04-20T01:41:26.958Z,0.54
2023-04-20T01:43:54.538Z,0.54
2023-04-20T01:46:22.160Z,0.54
2023-04-20T01:48:49.706Z,0.50
2023-04-20T01:51:17.223Z,0.43
2023-04-20T01:53:44.727Z,0.37
2023-04-20T01:56:12.251Z,0.29
2023-04-20T01:58:41.172Z,0.22
2023-04-20T02:01:08.691Z,0.24
2023-04-20T02:03:36.286Z,0.10
2023-04-20T02:06:03.992Z,0.08
2023-04-20T02:08:31.473Z,0.03
2023-04-20T02:10:59.002Z,0.12
2023-04-20T02:13:26.882Z,0.12
2023-04-20T02:15:56.930Z,0.01
2023-04-20T02:18:24.545Z,0.23
2023-04-20T02:20:52.392Z,0.32
2023-04-20T02:23:19.916Z,0.42
2023-04-20T02:25:47.415Z,0.47
2023-04-20T02:28:14.933Z,0.54
2023-04-20T02:30:42.515Z,0.39
2023-04-20T02:33:11.480Z,0.56
2023-04-20T02:35:39.062Z,0.66
2023-04-20T02:38:06.713Z,0.75
2023-04-20T02:40:34.683Z,1.00
2023-04-20T02:43:02.202Z,1.13
2023-04-20T02:45:30.719Z,1.30
2023-04-20T02:47:58.304Z,1.38
2023-04-20T02:50:27.521Z,1.42
2023-04-20T02:52:55.001Z,1.48
2023-04-20T02:55:22.656Z,1.59
2023-04-20T02:57:50.213Z,1.71
2023-04-20T03:00:18.594Z,1.75
2023-04-20T03:02:46.799Z,1.79
2023-04-20T03:05:14.573Z,1.79
2023-04-20T03:07:43.612Z,1.83
2023-04-20T03:10:11.963Z,1.62
2023-04-20T03:12:39.495Z,1.80
2023-04-20T03:15:07.972Z,1.79
2023-04-20T03:17:35.959Z,1.73
2023-04-20T03:20:04.623Z,1.80
2023-04-20T03:22:32.148Z,1.90
2023-04-20T03:25:01.149Z,1.89
2023-04-20T03:27:28.626Z,2.01
2023-04-20T03:29:56.105Z,2.09
2023-04-20T03:32:23.671Z,2.01
2023-04-20T03:34:51.804Z,2.09
2023-04-20T03:37:19.282Z,2.04
2023-04-20T03:39:46.895Z,2.15
2023-04-20T03:42:15.843Z,2.12
2023-04-20T03:44:43.372Z,2.04
2023-04-20T03:47:11.306Z,1.92
2023-04-20T03:49:38.807Z,1.88
2023-04-20T03:52:07.113Z,1.75
2023-04-20T03:54:34.673Z,1.59
2023-04-20T03:57:02.530Z,1.52
2023-04-20T03:59:31.407Z,1.30
2023-04-20T04:01:59.660Z,1.29
2023-04-20T04:04:27.369Z,1.23
2023-04-20T04:06:55.118Z,1.20
2023-04-20T04:09:22.687Z,1.02
2023-04-20T04:11:50.203Z,1.02
2023-04-20T04:14:17.687Z,0.88
2023-04-20T04:16:46.576Z,0.85
2023-04-20T04:19:14.040Z,0.79
2023-04-20T04:21:42.476Z,0.74
2023-04-20T04:24:10.364Z,0.65
2023-04-20T04:26:37.913Z,0.60
2023-04-20T04:29:06.910Z,0.67
2023-04-20T04:31:34.957Z,0.57
2023-04-20T04:34:04.624Z,0.68
2023-04-20T04:36:32.160Z,0.71
2023-04-20T04:39:00.025Z,0.72
2023-04-20T04:41:27.627Z,0.60
2023-04-20T04:43:55.242Z,0.34
2023-04-20T04:46:25.510Z,0.46
2023-04-20T04:48:53.351Z,0.28
2023-04-20T04:51:22.343Z,0.20
2023-04-20T04:53:50.132Z,0.54
2023-04-20T04:56:18.406Z,0.63
2023-04-20T04:58:46.243Z,0.52
2023-04-20T05:01:14.854Z,0.52
2023-04-20T05:03:53.253Z,0.51
2023-04-20T05:06:22.426Z,0.34
2023-04-20T05:08:49.920Z,0.50
2023-04-20T05:11:17.409Z,0.39
2023-04-20T05:13:44.907Z,0.40
2023-04-20T05:16:12.413Z,0.43
2023-04-20T05:18:39.936Z,0.33
2023-04-20T05:21:07.403Z,0.45
2023-04-20T05:23:36.226Z,0.35
2023-04-20T05:26:03.896Z,0.34
2023-04-20T05:28:31.392Z,0.31
2023-04-20T05:30:59.222Z,0.41
2023-04-20T05:33:26.944Z,0.40
2023-04-20T05:35:57.493Z,0.16
2023-04-20T05:38:25.140Z,0.30
2023-04-20T05:40:53.961Z,0.34
2023-04-20T05:43:21.477Z,0.51
2023-04-20T05:45:49.872Z,0.56
2023-04-20T05:48:17.421Z,0.55
2023-04-20T05:50:44.911Z,0.54
2023-04-20T05:53:12.361Z,0.63
2023-04-20T05:55:39.818Z,0.60
2023-04-20T05:58:08.653Z,0.71
2023-04-20T06:00:36.497Z,0.69
2023-04-20T06:03:04.809Z,0.90
2023-04-20T06:05:32.530Z,0.76
2023-04-20T06:08:00.003Z,0.88
2023-04-20T06:10:32.102Z,0.98
2023-04-20T06:12:59.608Z,0.96
2023-04-20T06:15:28.501Z,0.85
2023-04-20T06:17:56.062Z,0.76
2023-04-20T06:20:23.905Z,0.83
2023-04-20T06:22:51.531Z,0.69
2023-04-20T06:25:18.985Z,0.82
2023-04-20T06:27:46.547Z,0.89
2023-04-20T06:30:15.033Z,0.88
2023-04-20T06:32:46.371Z,0.77
2023-04-20T06:35:13.957Z,0.86
2023-04-20T06:37:41.394Z,0.86
2023-04-20T06:40:09.624Z,0.95
2023-04-20T06:42:37.398Z,0.82
2023-04-20T06:45:05.942Z,0.93
2023-04-20T06:47:33.824Z,1.14
2023-04-20T06:50:07.180Z,1.05
2023-04-20T06:52:34.678Z,1.01
2023-04-20T06:55:02.161Z,0.99
2023-04-20T06:57:29.657Z,1.14
2023-04-20T06:59:58.778Z,0.86
2023-04-20T07:02:26.408Z,0.97
2023-04-20T07:04:54.084Z,1.04
2023-04-20T07:07:23.064Z,0.82
2023-04-20T07:09:50.534Z,0.83
2023-04-20T07:12:17.990Z,0.72
2023-04-20T07:14:45.411Z,0.86
2023-04-20T07:17:12.907Z,0.98
2023-04-20T07:19:40.396Z,0.88
2023-04-20T07:22:07.867Z,0.95
2023-04-20T07:24:36.642Z,0.91
2023-04-20T07:27:04.186Z,0.90
2023-04-20T07:29:33.872Z,0.92
2023-04-20T07:32:01.640Z,0.81
2023-04-20T07:34:29.140Z,0.76
2023-04-20T07:36:56.588Z,0.67
2023-04-20T07:39:25.386Z,0.84
2023-04-20T07:41:54.514Z,0.89
2023-04-20T07:44:21.932Z,0.83
2023-04-20T07:46:49.869Z,0.69
2023-04-20T07:49:17.586Z,0.60
2023-04-20T07:51:45.404Z,0.63
2023-04-20T07:54:12.909Z,0.74
2023-04-20T07:56:40.365Z,0.69
2023-04-20T07:59:09.245Z,0.88
2023-04-20T08:01:37.033Z,0.94
2023-04-20T08:04:05.186Z,1.00
2023-04-20T08:06:33.225Z,1.12
2023-04-20T08:09:00.729Z,0.96
2023-04-20T08:11:28.197Z,1.10
2023-04-20T08:13:57.254Z,1.14
2023-04-20T08:16:27.356Z,1.34
2023-04-20T08:18:54.950Z,1.48
2023-04-20T08:21:25.436Z,1.37
2023-04-20T08:23:53.666Z,1.45
2023-04-20T08:26:25.176Z,1.25
2023-04-20T08:28:52.673Z,1.40
2023-04-20T08:31:20.804Z,1.47
2023-04-20T08:33:49.674Z,1.24
2023-04-20T08:36:17.704Z,1.33
2023-04-20T08:38:45.229Z,1.46
2023-04-20T08:41:13.437Z,1.45
2023-04-20T08:43:41.410Z,1.54
2023-04-20T08:46:09.135Z,1.67
2023-04-20T08:48:38.173Z,1.44
2023-04-20T08:51:07.348Z,1.81
2023-04-20T08:53:34.991Z,1.59
2023-04-20T08:56:02.559Z,1.37
2023-04-20T08:58:32.077Z,1.53
2023-04-20T09:01:00.664Z,1.70
2023-04-20T09:03:36.068Z,2.04
2023-04-20T09:06:03.917Z,1.90
2023-04-20T09:08:40.016Z,1.67
2023-04-20T09:11:07.901Z,1.65
2023-04-20T09:13:35.544Z,1.74
2023-04-20T09:16:12.790Z,1.87
2023-04-20T09:18:40.364Z,1.84
2023-04-20T09:21:11.020Z,1.64
2023-04-20T09:23:39.861Z,1.71
2023-04-20T09:26:07.588Z,1.72
2023-04-20T09:28:39.568Z,1.74
2023-04-20T09:31:07.151Z,1.77
2023-04-20T09:33:36.574Z,2.01
2023-04-20T09:36:06.251Z,2.05
2023-04-20T09:38:34.934Z,1.97
2023-04-20T09:41:04.549Z,2.14
2023-04-20T09:43:32.625Z,2.39
2023-04-20T09:46:04.148Z,2.44
2023-04-20T09:48:32.255Z,2.30
2023-04-20T09:51:03.400Z,2.36
2023-04-20T09:53:32.061Z,2.47
2023-04-20T09:56:02.151Z,2.45
2023-04-20T09:58:33.440Z,2.55
2023-04-20T10:01:02.380Z,2.50
2023-04-20T10:03:30.196Z,2.62
2023-04-20T10:05:57.781Z,2.75
2023-04-20T10:08:25.303Z,2.75
2023-04-20T10:10:52.799Z,2.78
2023-04-20T10:13:21.754Z,2.65
2023-04-20T10:15:50.705Z,2.89
2023-04-20T10:18:20.724Z,2.95
2023-04-20T10:20:48.719Z,3.06
2023-04-20T10:23:18.586Z,2.99
2023-04-20T10:25:56.291Z,3.34
2023-04-20T10:28:23.832Z,3.48
2023-04-20T10:30:56.179Z,3.64
2023-04-20T10:33:23.811Z,3.48
2023-04-20T10:35:54.589Z,3.31
2023-04-20T10:38:37.624Z,3.47
2023-04-20T10:41:08.429Z,3.48
2023-04-20T10:43:38.938Z,3.40
2023-04-20T10:46:16.354Z,3.39
2023-04-20T10:48:57.850Z,3.43
2023-04-20T10:51:26.326Z,3.28
2023-04-20T10:54:01.183Z,3.15
2023-04-20T10:56:28.936Z,2.90
2023-04-20T10:59:07.709Z,3.29
2023-04-20T11:01:37.157Z,3.18
2023-04-20T11:04:09.711Z,3.28
2023-04-20T11:06:39.368Z,3.33
2023-04-20T11:09:18.423Z,3.30
2023-04-20T11:11:46.169Z,3.31
2023-04-20T11:14:14.200Z,2.96
2023-04-20T11:16:53.191Z,3.04
2023-04-20T11:19:26.029Z,3.29
2023-04-20T11:21:53.686Z,3.55
2023-04-20T11:24:22.821Z,3.69
2023-04-20T11:26:52.627Z,3.50
2023-04-20T11:29:31.840Z,3.60
2023-04-20T11:32:04.075Z,3.90
2023-04-20T11:34:33.455Z,4.15
2023-04-20T11:37:05.523Z,4.46
2023-04-20T11:39:36.264Z,4.58
2023-04-20T11:42:07.789Z,4.45
2023-04-20T11:44:36.587Z,4.21
2023-04-20T11:47:08.377Z,4.28
2023-04-20T11:49:36.194Z,4.57
2023-04-20T11:52:06.284Z,4.61
2023-04-20T11:54:35.017Z,4.22
2023-04-20T11:57:02.560Z,4.18
2023-04-20T11:59:31.361Z,4.18
2023-04-20T12:02:01.256Z,4.40
2023-04-20T12:04:30.981Z,4.42
2023-04-20T12:06:59.382Z,4.50
2023-04-20T12:09:27.082Z,4.41
2023-04-20T12:11:54.822Z,4.52
2023-04-20T12:14:22.317Z,5.06
2023-04-20T12:16:49.843Z,5.10
2023-04-20T12:19:17.658Z,5.57
2023-04-20T12:21:47.861Z,5.99
2023-04-20T12:24:15.299Z,6.22
2023-04-20T12:26:42.810Z,6.41
2023-04-20T12:29:10.458Z,6.07
2023-04-20T12:31:37.937Z,5.86
2023-04-20T12:34:05.576Z,5.25
2023-04-20T12:36:34.962Z,5.41
2023-04-20T12:39:04.445Z,5.95
2023-04-20T12:41:32.942Z,6.31
2023-04-20T12:44:02.039Z,6.42
2023-04-20T12:46:31.239Z,5.97
2023-04-20T12:48:58.720Z,5.79
2023-04-20T12:51:27.082Z,6.00
2023-04-20T12:53:54.546Z,6.30
2023-04-20T12:56:23.369Z,6.30
2023-04-20T12:58:50.840Z,6.09
2023-04-20T13:01:18.500Z,6.49
2023-04-20T13:03:46.316Z,6.87
2023-04-20T13:06:14.526Z,6.64
2023-04-20T13:08:42.202Z,6.52
2023-04-20T13:11:11.926Z,6.22
2023-04-20T13:13:40.755Z,6.08
2023-04-20T13:16:08.440Z,5.89
2023-04-20T13:18:36.149Z,6.21
2023-04-20T13:21:03.713Z,6.20
2023-04-20T13:23:31.248Z,5.78
2023-04-20T13:26:01.293Z,5.82
2023-04-20T13:28:29.016Z,5.77
2023-04-20T13:30:58.285Z,5.71
2023-04-20T13:33:26.194Z,5.79
2023-04-20T13:35:53.772Z,5.73
2023-04-20T13:38:21.440Z,5.70
2023-04-20T13:40:49.132Z,5.74
2023-04-20T13:43:17.671Z,6.13
2023-04-20T13:45:46.394Z,6.37
2023-04-20T13:48:18.416Z,6.78
2023-04-20T13:50:47.282Z,6.69
2023-04-20T13:53:14.753Z,6.58
2023-04-20T13:55:42.193Z,6.58
2023-04-20T13:58:09.646Z,6.64
2023-04-20T14:00:37.308Z,6.72
2023-04-20T14:03:06.085Z,7.03
2023-04-20T14:05:35.008Z,7.22
2023-04-20T14:08:03.584Z,6.55
2023-04-20T14:10:31.026Z,6.48
2023-04-20T14:12:58.514Z,6.55
2023-04-20T14:15:26.074Z,6.71
2023-04-20T14:17:53.664Z,7.22
2023-04-20T14:20:21.162Z,7.69
2023-04-20T14:22:49.954Z,7.70
2023-04-20T14:25:17.561Z,7.75
2023-04-20T14:27:46.107Z,7.99
2023-04-20T14:30:14.687Z,7.92
2023-04-20T14:32:42.265Z,8.28
2023-04-20T14:35:10.215Z,7.93
2023-04-20T14:37:37.624Z,6.86
2023-04-20T14:40:08.163Z,6.62
2023-04-20T14:42:36.341Z,7.03
2023-04-20T14:45:04.139Z,7.29
2023-04-20T14:47:31.607Z,7.35
2023-04-20T14:49:59.085Z,7.61
2023-04-20T14:52:26.713Z,7.38
2023-04-20T14:54:54.186Z,7.10
2023-04-20T14:57:22.985Z,7.17
2023-04-20T14:59:50.456Z,7.13
2023-04-20T15:02:18.362Z,7.11
2023-04-20T15:04:46.401Z,7.04
2023-04-20T15:07:14.058Z,7.29
2023-04-20T15:09:41.540Z,7.03
2023-04-20T15:12:09.190Z,7.09
2023-04-20T15:14:37.990Z,7.18
2023-04-20T15:17:05.471Z,6.96
2023-04-20T15:19:33.089Z,6.63
2023-04-20T15:22:00.548Z,6.63
2023-04-20T15:24:28.029Z,6.51
2023-04-20T15:26:55.476Z,6.67
2023-04-20T15:29:22.907Z,6.61
2023-04-20T15:31:51.854Z,6.30
2023-04-20T15:34:19.594Z,5.40
2023-04-20T15:36:47.271Z,5.07
2023-04-20T15:39:14.780Z,4.91
2023-04-20T15:41:42.325Z,4.68
2023-04-20T15:44:09.794Z,4.43
2023-04-20T15:46:37.778Z,4.35
2023-04-20T15:49:06.683Z,4.26
2023-04-20T15:51:34.129Z,4.21
2023-04-20T15:54:01.666Z,4.14
2023-04-20T15:56:29.172Z,4.11
2023-04-20T15:58:56.588Z,4.16
2023-04-20T16:01:24.222Z,4.09
2023-04-20T16:03:51.920Z,4.29
2023-04-20T16:06:21.070Z,4.58
2023-04-20T16:08:53.050Z,4.89
2023-04-20T16:11:21.734Z,5.16
2023-04-20T16:13:49.523Z,5.16
2023-04-20T16:16:17.194Z,5.54
2023-04-20T16:18:44.730Z,6.17
2023-04-20T16:21:12.195Z,6.26
2023-04-20T16:23:41.082Z,6.99
2023-04-20T16:26:08.558Z,7.35
2023-04-20T16:28:37.284Z,7.30
2023-04-20T16:31:05.214Z,7.08
2023-04-20T16:33:33.200Z,7.34
2023-04-20T16:36:01.729Z,7.53
2023-04-20T16:38:29.220Z,7.17
2023-04-20T16:40:58.214Z,6.97
2023-04-20T16:43:25.745Z,7.02
2023-04-20T16:45:53.286Z,7.00
2023-04-20T16:48:20.928Z,7.82
2023-04-20T16:50:48.555Z,7.82
2023-04-20T16:53:16.004Z,7.29
2023-04-20T16:55:43.515Z,7.08
2023-04-20T16:58:12.615Z,6.69
2023-04-20T17:00:40.244Z,6.45
2023-04-20T17:03:10.365Z,5.15
2023-04-20T17:05:41.119Z,3.98
2023-04-20T17:08:09.619Z,3.65
2023-04-20T17:10:38.324Z,3.34
2023-04-20T17:13:06.119Z,3.24
2023-04-20T17:15:35.128Z,3.12
2023-04-20T17:18:02.705Z,2.95
2023-04-20T17:20:30.501Z,2.93
2023-04-20T17:22:57.950Z,2.80
2023-04-20T17:25:25.430Z,3.00
2023-04-20T17:27:52.972Z,3.07
2023-04-20T17:30:21.025Z,2.99
2023-04-20T17:32:49.980Z,3.33
2023-04-20T17:35:17.531Z,3.45
2023-04-20T17:37:45.050Z,3.41
2023-04-20T17:40:13.031Z,3.63
2023-04-20T17:42:40.593Z,3.67
2023-04-20T17:45:08.819Z,3.71
2023-04-20T17:47:36.305Z,3.67
2023-04-20T17:50:06.019Z,3.68
2023-04-20T17:52:33.641Z,3.59
2023-04-20T17:55:01.871Z,3.67
2023-04-20T17:57:29.674Z,3.68
2023-04-20T17:59:57.497Z,3.65
2023-04-20T18:02:25.625Z,3.59
2023-04-20T18:04:55.175Z,3.60
2023-04-20T18:07:24.180Z,3.60
2023-04-20T18:09:53.529Z,3.77
2023-04-20T18:12:21.096Z,3.81
2023-04-20T18:14:48.769Z,3.67
2023-04-20T18:17:16.255Z,3.80
2023-04-20T18:19:43.826Z,3.81
2023-04-20T18:22:11.358Z,3.77
2023-04-20T18:24:40.333Z,3.62
2023-04-20T18:27:08.178Z,3.71
2023-04-20T18:29:36.459Z,3.61
2023-04-20T18:32:04.175Z,3.65
2023-04-20T18:34:32.028Z,3.75
2023-04-20T18:36:59.798Z,3.70
2023-04-20T18:39:27.337Z,3.64
2023-04-20T18:41:56.338Z,3.50
2023-04-20T18:44:24.096Z,3.67
2023-04-20T18:46:51.644Z,3.53
2023-04-20T18:49:19.132Z,3.64
2023-04-20T18:51:47.149Z,3.65
2023-04-20T18:54:15.294Z,3.62
2023-04-20T18:56:42.906Z,3.45
2023-04-20T18:59:12.353Z,3.57
2023-04-20T19:01:40.593Z,3.60
2023-04-20T19:04:09.202Z,3.37
2023-04-20T19:06:36.953Z,3.43
2023-04-20T19:09:07.278Z,3.54
2023-04-20T19:11:36.144Z,3.56
2023-04-20T19:14:04.423Z,3.68
2023-04-20T19:16:34.395Z,3.68
2023-04-20T19:19:02.921Z,3.55
2023-04-20T19:21:31.908Z,3.61
2023-04-20T19:23:59.612Z,3.57
2023-04-20T19:26:27.414Z,3.67
2023-04-20T19:28:59.887Z,3.70
2023-04-20T19:31:32.225Z,3.43
2023-04-20T19:34:01.324Z,3.73
2023-04-20T19:36:29.053Z,3.73
2023-04-20T19:38:56.784Z,3.65
2023-04-20T19:41:25.872Z,3.75
2023-04-20T19:43:53.558Z,3.61
2023-04-20T19:46:21.413Z,3.72
2023-04-20T19:48:49.063Z,3.79
2023-04-20T19:51:19.200Z,3.79
2023-04-20T19:53:46.928Z,3.79
2023-04-20T19:56:15.110Z,3.79
2023-04-20T19:58:43.379Z,3.53
2023-04-20T20:01:11.362Z,3.78
2023-04-20T20:03:39.269Z,3.73
2023-04-20T20:06:07.671Z,3.76
2023-04-20T20:08:37.595Z,3.79
2023-04-20T20:11:05.559Z,3.82
2023-04-20T20:13:33.199Z,3.61
2023-04-20T20:16:01.759Z,3.67
2023-04-20T20:18:29.529Z,3.74
2023-04-20T20:20:57.037Z,3.67
2023-04-20T20:23:24.683Z,3.65
2023-04-20T20:25:53.735Z,3.79
2023-04-20T20:28:21.251Z,3.70
2023-04-20T20:30:48.931Z,3.75
2023-04-20T20:33:16.576Z,3.66
2023-04-20T20:35:44.257Z,3.57
2023-04-20T20:38:12.193Z,3.65
2023-04-20T20:40:40.697Z,3.61
2023-04-20T20:43:10.601Z,3.65
2023-04-20T20:45:38.423Z,3.57
2023-04-20T20:48:06.255Z,3.50
2023-04-20T20:50:34.175Z,3.57
2023-04-20T20:53:01.792Z,3.55
2023-04-20T20:55:29.378Z,3.51
2023-04-20T20:57:56.995Z,3.42
2023-04-20T21:00:26.393Z,3.42
2023-04-20T21:02:54.414Z,3.35
2023-04-20T21:05:22.940Z,3.41
2023-04-20T21:07:50.878Z,3.29
2023-04-20T21:10:18.602Z,3.44
2023-04-20T21:12:47.136Z,3.30
2023-04-20T21:15:15.628Z,3.37
2023-04-20T21:17:44.803Z,3.29
2023-04-20T21:20:13.430Z,3.33
2023-04-20T21:22:41.502Z,3.35
2023-04-20T21:25:09.835Z,3.19
2023-04-20T21:27:38.139Z,3.23
2023-04-20T21:30:07.147Z,3.24
2023-04-20T21:32:34.973Z,3.24
2023-04-20T21:35:04.297Z,3.35
2023-04-20T21:37:32.277Z,3.23
2023-04-20T21:40:00.784Z,3.18
2023-04-20T21:42:28.372Z,3.26
2023-04-20T21:44:56.085Z,3.28
2023-04-20T21:47:23.759Z,3.33
2023-04-20T21:49:51.458Z,3.15
2023-04-20T21:52:20.370Z,3.31
2023-04-20T21:54:47.844Z,3.28
2023-04-20T21:57:15.306Z,3.31
2023-04-20T21:59:42.791Z,3.38
2023-04-20T22:02:10.443Z,3.45
2023-04-20T22:04:38.133Z,3.31
2023-04-20T22:07:06.681Z,3.43
2023-04-20T22:09:36.082Z,3.47
2023-04-20T22:12:05.290Z,3.19
2023-04-20T22:14:33.134Z,3.18
2023-04-20T22:17:01.775Z,3.36
2023-04-20T22:19:29.303Z,3.48
2023-04-20T22:21:56.741Z,3.48
2023-04-20T22:24:24.438Z,3.47
2023-04-20T22:26:57.493Z,3.46
2023-04-20T22:29:25.051Z,3.47
2023-04-20T22:31:52.483Z,3.44
2023-04-20T22:34:19.965Z,3.42
2023-04-20T22:36:47.656Z,3.42
2023-04-20T22:39:15.492Z,3.41
2023-04-20T22:41:42.982Z,3.28
2023-04-20T22:44:11.790Z,3.38
2023-04-20T22:46:39.313Z,3.33
2023-04-20T22:49:06.903Z,3.38
2023-04-20T22:51:34.435Z,3.33
2023-04-20T22:54:02.507Z,3.38
2023-04-20T22:56:30.356Z,3.39
2023-04-20T22:58:57.852Z,3.39
2023-04-20T23:01:26.963Z,3.41
2023-04-20T23:03:55.107Z,3.47
2023-04-20T23:06:23.361Z,3.30
2023-04-20T23:08:51.376Z,3.44
2023-04-20T23:11:20.657Z,3.32
2023-04-20T23:13:48.138Z,3.31
2023-04-20T23:16:15.723Z,3.31
2023-04-20T23:18:44.590Z,3.46
2023-04-20T23:21:12.684Z,3.47
2023-04-20T23:23:40.129Z,3.37
2023-04-20T23:26:07.614Z,3.37
2023-04-20T23:28:35.048Z,3.35
2023-04-20T23:31:02.517Z,3.34
2023-04-20T23:33:30.015Z,3.31
2023-04-20T23:36:00.546Z,3.31
2023-04-20T23:38:28.008Z,3.31
2023-04-20T23:40:55.465Z,3.28
2023-04-20T23:43:22.940Z,3.26
2023-04-20T23:45:50.464Z,3.32
2023-04-20T23:48:18.105Z,3.38
2023-04-20T23:50:45.836Z,3.34
2023-04-20T23:53:14.703Z,3.33
2023-04-20T23:55:42.215Z,3.34
2023-04-20T23:58:09.829Z,3.37
